sensor_id;sensor_type;location;lat;lon;timestamp;temperature;humidity
2571;DHT22;1295;51.130;6.732;2023-12-07T00:00:20;4.50;99.90
2571;DHT22;1295;51.130;6.732;2023-12-07T00:02:45;4.50;99.90
2571;DHT22;1295;51.130;6.732;2023-12-07T00:05:11;4.50;99.90
2571;DHT22;1295;51.130;6.732;2023-12-07T00:07:37;4.50;99.90
2571;DHT22;1295;51.130;6.732;2023-12-07T00:10:03;4.40;99.90
2571;DHT22;1295;51.130;6.732;2023-12-07T00:12:30;4.40;99.90
2571;DHT22;1295;51.130;6.732;2023-12-07T00:14:55;4.40;99.90
2571;DHT22;1295;51.130;6.732;2023-12-07T00:17:21;4.40;99.90
2571;DHT22;1295;51.130;6.732;2023-12-07T00:19:46;4.40;99.90
2571;DHT22;1295;51.130;6.732;2023-12-07T00:22:12;4.40;99.90
2571;DHT22;1295;51.130;6.732;2023-12-07T00:24:39;4.30;99.90
2571;DHT22;1295;51.130;6.732;2023-12-07T00:27:04;4.30;99.90
2571;DHT22;1295;51.130;6.732;2023-12-07T00:29:30;4.10;99.90
2571;DHT22;1295;51.130;6.732;2023-12-07T00:31:55;4.30;99.90
2571;DHT22;1295;51.130;6.732;2023-12-07T00:34:21;4.40;99.90
2571;DHT22;1295;51.130;6.732;2023-12-07T00:36:47;4.40;99.90
2571;DHT22;1295;51.130;6.732;2023-12-07T00:39:12;4.40;99.90
2571;DHT22;1295;51.130;6.732;2023-12-07T00:41:38;4.40;99.90
2571;DHT22;1295;51.130;6.732;2023-12-07T00:44:04;4.40;99.90
2571;DHT22;1295;51.130;6.732;2023-12-07T00:46:30;4.40;99.90
2571;DHT22;1295;51.130;6.732;2023-12-07T00:48:55;4.30;99.90
2571;DHT22;1295;51.130;6.732;2023-12-07T00:51:21;4.30;99.90
2571;DHT22;1295;51.130;6.732;2023-12-07T00:53:46;4.30;99.90
2571;DHT22;1295;51.130;6.732;2023-12-07T00:56:12;4.30;99.90
2571;DHT22;1295;51.130;6.732;2023-12-07T00:58:38;4.30;99.90
2571;DHT22;1295;51.130;6.732;2023-12-07T01:01:03;4.30;99.90
2571;DHT22;1295;51.130;6.732;2023-12-07T01:03:29;4.30;99.90
2571;DHT22;1295;51.130;6.732;2023-12-07T01:05:54;4.30;99.90
2571;DHT22;1295;51.130;6.732;2023-12-07T01:08:20;4.30;99.90
2571;DHT22;1295;51.130;6.732;2023-12-07T01:10:46;4.30;99.90
2571;DHT22;1295;51.130;6.732;2023-12-07T01:13:11;4.30;99.90
2571;DHT22;1295;51.130;6.732;2023-12-07T01:15:37;4.30;99.90
2571;DHT22;1295;51.130;6.732;2023-12-07T01:18:03;4.30;99.90
2571;DHT22;1295;51.130;6.732;2023-12-07T01:20:29;4.30;99.90
2571;DHT22;1295;51.130;6.732;2023-12-07T01:22:55;4.30;99.90
2571;DHT22;1295;51.130;6.732;2023-12-07T01:25:20;4.20;99.90
2571;DHT22;1295;51.130;6.732;2023-12-07T01:27:46;4.20;99.90
2571;DHT22;1295;51.130;6.732;2023-12-07T01:30:12;4.20;99.90
2571;DHT22;1295;51.130;6.732;2023-12-07T01:32:37;4.20;99.90
2571;DHT22;1295;51.130;6.732;2023-12-07T01:35:04;4.20;99.90
2571;DHT22;1295;51.130;6.732;2023-12-07T01:37:30;4.20;99.90
2571;DHT22;1295;51.130;6.732;2023-12-07T01:39:56;4.20;99.90
2571;DHT22;1295;51.130;6.732;2023-12-07T01:42:21;4.20;99.90
2571;DHT22;1295;51.130;6.732;2023-12-07T01:44:53;4.20;99.90
2571;DHT22;1295;51.130;6.732;2023-12-07T01:47:28;4.20;99.90
2571;DHT22;1295;51.130;6.732;2023-12-07T01:49:54;4.20;99.90
2571;DHT22;1295;51.130;6.732;2023-12-07T01:52:20;4.10;99.90
2571;DHT22;1295;51.130;6.732;2023-12-07T01:54:45;4.20;99.90
2571;DHT22;1295;51.130;6.732;2023-12-07T01:57:11;4.10;99.90
2571;DHT22;1295;51.130;6.732;2023-12-07T01:59:36;4.10;99.90
2571;DHT22;1295;51.130;6.732;2023-12-07T02:02:02;4.10;99.90
2571;DHT22;1295;51.130;6.732;2023-12-07T02:04:29;4.10;99.90
2571;DHT22;1295;51.130;6.732;2023-12-07T02:06:55;4.10;99.90
2571;DHT22;1295;51.130;6.732;2023-12-07T02:09:21;4.10;99.90
2571;DHT22;1295;51.130;6.732;2023-12-07T02:11:46;4.10;99.90
2571;DHT22;1295;51.130;6.732;2023-12-07T02:14:12;4.10;99.90
2571;DHT22;1295;51.130;6.732;2023-12-07T02:16:40;4.10;99.90
2571;DHT22;1295;51.130;6.732;2023-12-07T02:21:52;4.00;99.90
2571;DHT22;1295;51.130;6.732;2023-12-07T02:24:17;4.00;99.90
2571;DHT22;1295;51.130;6.732;2023-12-07T02:26:41;4.00;99.90
2571;DHT22;1295;51.130;6.732;2023-12-07T02:29:07;4.00;99.90
2571;DHT22;1295;51.130;6.732;2023-12-07T02:31:33;4.00;99.90
2571;DHT22;1295;51.130;6.732;2023-12-07T02:33:58;4.00;99.90
2571;DHT22;1295;51.130;6.732;2023-12-07T02:36:26;4.00;99.90
2571;DHT22;1295;51.130;6.732;2023-12-07T02:38:51;4.00;99.90
2571;DHT22;1295;51.130;6.732;2023-12-07T02:41:18;4.00;99.90
2571;DHT22;1295;51.130;6.732;2023-12-07T02:43:43;4.00;99.90
2571;DHT22;1295;51.130;6.732;2023-12-07T02:46:09;4.00;99.90
2571;DHT22;1295;51.130;6.732;2023-12-07T02:48:35;4.00;99.90
2571;DHT22;1295;51.130;6.732;2023-12-07T02:51:00;3.90;99.90
2571;DHT22;1295;51.130;6.732;2023-12-07T02:53:26;3.90;99.90
2571;DHT22;1295;51.130;6.732;2023-12-07T02:55:51;3.90;99.90
2571;DHT22;1295;51.130;6.732;2023-12-07T02:58:17;3.90;99.90
2571;DHT22;1295;51.130;6.732;2023-12-07T03:00:43;3.90;99.90
2571;DHT22;1295;51.130;6.732;2023-12-07T03:03:08;3.90;99.90
2571;DHT22;1295;51.130;6.732;2023-12-07T03:05:34;3.90;99.90
2571;DHT22;1295;51.130;6.732;2023-12-07T03:07:59;3.90;99.90
2571;DHT22;1295;51.130;6.732;2023-12-07T03:10:25;3.90;99.90
2571;DHT22;1295;51.130;6.732;2023-12-07T03:12:51;3.90;99.90
2571;DHT22;1295;51.130;6.732;2023-12-07T03:15:16;3.90;99.90
2571;DHT22;1295;51.130;6.732;2023-12-07T03:17:42;3.90;99.90
2571;DHT22;1295;51.130;6.732;2023-12-07T03:20:08;3.90;99.90
2571;DHT22;1295;51.130;6.732;2023-12-07T03:22:35;3.90;99.90
2571;DHT22;1295;51.130;6.732;2023-12-07T03:25:01;3.80;99.90
2571;DHT22;1295;51.130;6.732;2023-12-07T03:27:26;3.90;99.90
2571;DHT22;1295;51.130;6.732;2023-12-07T03:29:52;3.80;99.90
2571;DHT22;1295;51.130;6.732;2023-12-07T03:32:18;3.80;99.90
2571;DHT22;1295;51.130;6.732;2023-12-07T03:34:43;3.80;99.90
2571;DHT22;1295;51.130;6.732;2023-12-07T03:37:09;3.80;99.90
2571;DHT22;1295;51.130;6.732;2023-12-07T03:39:34;3.80;99.90
2571;DHT22;1295;51.130;6.732;2023-12-07T03:42:01;3.80;99.90
2571;DHT22;1295;51.130;6.732;2023-12-07T03:44:26;3.80;99.90
2571;DHT22;1295;51.130;6.732;2023-12-07T03:46:52;3.80;99.90
2571;DHT22;1295;51.130;6.732;2023-12-07T03:49:18;3.80;99.90
2571;DHT22;1295;51.130;6.732;2023-12-07T03:51:43;3.80;99.90
2571;DHT22;1295;51.130;6.732;2023-12-07T03:54:09;3.80;99.90
2571;DHT22;1295;51.130;6.732;2023-12-07T03:56:35;3.80;99.90
2571;DHT22;1295;51.130;6.732;2023-12-07T03:59:01;3.80;99.90
2571;DHT22;1295;51.130;6.732;2023-12-07T04:01:27;3.70;99.90
2571;DHT22;1295;51.130;6.732;2023-12-07T04:03:53;3.70;99.90
2571;DHT22;1295;51.130;6.732;2023-12-07T04:06:19;3.70;99.90
2571;DHT22;1295;51.130;6.732;2023-12-07T04:08:45;3.70;99.90
2571;DHT22;1295;51.130;6.732;2023-12-07T04:11:10;3.70;99.90
2571;DHT22;1295;51.130;6.732;2023-12-07T04:13:37;3.70;99.90
2571;DHT22;1295;51.130;6.732;2023-12-07T04:16:03;3.70;99.90
2571;DHT22;1295;51.130;6.732;2023-12-07T04:18:29;3.70;99.90
2571;DHT22;1295;51.130;6.732;2023-12-07T04:20:55;3.80;99.90
2571;DHT22;1295;51.130;6.732;2023-12-07T04:23:21;3.80;99.90
2571;DHT22;1295;51.130;6.732;2023-12-07T04:25:46;3.80;99.90
2571;DHT22;1295;51.130;6.732;2023-12-07T04:28:12;3.80;99.90
2571;DHT22;1295;51.130;6.732;2023-12-07T04:30:38;3.70;99.90
2571;DHT22;1295;51.130;6.732;2023-12-07T04:33:04;3.70;99.90
2571;DHT22;1295;51.130;6.732;2023-12-07T04:35:31;3.70;99.90
2571;DHT22;1295;51.130;6.732;2023-12-07T04:37:56;3.70;99.90
2571;DHT22;1295;51.130;6.732;2023-12-07T04:40:24;3.70;99.90
2571;DHT22;1295;51.130;6.732;2023-12-07T04:42:48;3.70;99.90
2571;DHT22;1295;51.130;6.732;2023-12-07T04:45:14;3.70;99.90
2571;DHT22;1295;51.130;6.732;2023-12-07T04:47:40;3.70;99.90
2571;DHT22;1295;51.130;6.732;2023-12-07T04:50:06;3.70;99.90
2571;DHT22;1295;51.130;6.732;2023-12-07T04:52:32;3.70;99.90
2571;DHT22;1295;51.130;6.732;2023-12-07T04:54:59;3.70;99.90
2571;DHT22;1295;51.130;6.732;2023-12-07T04:57:24;3.70;99.90
2571;DHT22;1295;51.130;6.732;2023-12-07T04:59:49;3.70;99.90
2571;DHT22;1295;51.130;6.732;2023-12-07T05:02:15;3.70;99.90
2571;DHT22;1295;51.130;6.732;2023-12-07T05:04:41;3.70;99.90
2571;DHT22;1295;51.130;6.732;2023-12-07T05:07:06;3.70;99.90
2571;DHT22;1295;51.130;6.732;2023-12-07T05:09:32;3.70;99.90
2571;DHT22;1295;51.130;6.732;2023-12-07T05:11:57;3.70;99.90
2571;DHT22;1295;51.130;6.732;2023-12-07T05:14:23;3.70;99.90
2571;DHT22;1295;51.130;6.732;2023-12-07T05:16:49;3.70;99.90
2571;DHT22;1295;51.130;6.732;2023-12-07T05:19:15;3.70;99.90
2571;DHT22;1295;51.130;6.732;2023-12-07T05:21:41;3.70;99.90
2571;DHT22;1295;51.130;6.732;2023-12-07T05:24:07;3.70;99.90
2571;DHT22;1295;51.130;6.732;2023-12-07T05:26:32;3.60;99.90
2571;DHT22;1295;51.130;6.732;2023-12-07T05:28:58;3.70;99.90
2571;DHT22;1295;51.130;6.732;2023-12-07T05:31:24;3.70;99.90
2571;DHT22;1295;51.130;6.732;2023-12-07T05:33:50;3.60;99.90
2571;DHT22;1295;51.130;6.732;2023-12-07T05:36:16;3.60;99.90
2571;DHT22;1295;51.130;6.732;2023-12-07T05:38:41;3.60;99.90
2571;DHT22;1295;51.130;6.732;2023-12-07T05:41:07;3.60;99.90
2571;DHT22;1295;51.130;6.732;2023-12-07T05:43:32;3.60;99.90
2571;DHT22;1295;51.130;6.732;2023-12-07T05:45:58;3.60;99.90
2571;DHT22;1295;51.130;6.732;2023-12-07T05:48:24;3.60;99.90
2571;DHT22;1295;51.130;6.732;2023-12-07T05:50:49;3.60;99.90
2571;DHT22;1295;51.130;6.732;2023-12-07T05:53:15;3.60;99.90
2571;DHT22;1295;51.130;6.732;2023-12-07T05:55:41;3.60;99.90
2571;DHT22;1295;51.130;6.732;2023-12-07T05:58:06;3.60;99.90
2571;DHT22;1295;51.130;6.732;2023-12-07T06:00:32;3.60;99.90
2571;DHT22;1295;51.130;6.732;2023-12-07T06:02:57;3.50;99.90
2571;DHT22;1295;51.130;6.732;2023-12-07T06:05:23;3.60;99.90
2571;DHT22;1295;51.130;6.732;2023-12-07T06:07:50;3.60;99.90
2571;DHT22;1295;51.130;6.732;2023-12-07T06:10:15;3.50;99.90
2571;DHT22;1295;51.130;6.732;2023-12-07T06:12:41;3.60;99.90
2571;DHT22;1295;51.130;6.732;2023-12-07T06:15:07;3.60;99.90
2571;DHT22;1295;51.130;6.732;2023-12-07T06:17:34;3.60;99.90
2571;DHT22;1295;51.130;6.732;2023-12-07T06:19:59;3.50;99.90
2571;DHT22;1295;51.130;6.732;2023-12-07T06:22:25;3.50;99.90
2571;DHT22;1295;51.130;6.732;2023-12-07T06:24:51;3.60;99.90
2571;DHT22;1295;51.130;6.732;2023-12-07T06:27:17;3.60;99.90
2571;DHT22;1295;51.130;6.732;2023-12-07T06:29:42;3.60;99.90
2571;DHT22;1295;51.130;6.732;2023-12-07T06:32:08;3.50;99.90
2571;DHT22;1295;51.130;6.732;2023-12-07T06:34:33;3.50;99.90
2571;DHT22;1295;51.130;6.732;2023-12-07T06:36:59;3.50;99.90
2571;DHT22;1295;51.130;6.732;2023-12-07T06:39:25;3.50;99.90
2571;DHT22;1295;51.130;6.732;2023-12-07T06:41:50;3.50;99.90
2571;DHT22;1295;51.130;6.732;2023-12-07T06:44:16;3.50;99.90
2571;DHT22;1295;51.130;6.732;2023-12-07T06:46:42;3.50;99.90
2571;DHT22;1295;51.130;6.732;2023-12-07T06:49:07;3.50;99.90
2571;DHT22;1295;51.130;6.732;2023-12-07T06:51:33;3.50;99.90
2571;DHT22;1295;51.130;6.732;2023-12-07T06:53:58;3.50;99.90
2571;DHT22;1295;51.130;6.732;2023-12-07T06:56:31;3.50;99.90
2571;DHT22;1295;51.130;6.732;2023-12-07T06:58:57;3.50;99.90
2571;DHT22;1295;51.130;6.732;2023-12-07T07:01:23;3.50;99.90
2571;DHT22;1295;51.130;6.732;2023-12-07T07:03:48;3.50;99.90
2571;DHT22;1295;51.130;6.732;2023-12-07T07:06:14;3.40;99.90
2571;DHT22;1295;51.130;6.732;2023-12-07T07:08:39;3.40;99.90
2571;DHT22;1295;51.130;6.732;2023-12-07T07:11:09;3.50;99.90
2571;DHT22;1295;51.130;6.732;2023-12-07T07:13:31;3.40;99.90
2571;DHT22;1295;51.130;6.732;2023-12-07T07:15:56;3.40;99.90
2571;DHT22;1295;51.130;6.732;2023-12-07T07:18:22;3.50;99.90
2571;DHT22;1295;51.130;6.732;2023-12-07T07:20:47;3.40;99.90
2571;DHT22;1295;51.130;6.732;2023-12-07T07:23:13;3.40;99.90
2571;DHT22;1295;51.130;6.732;2023-12-07T07:25:39;3.40;99.90
2571;DHT22;1295;51.130;6.732;2023-12-07T07:28:05;3.40;99.90
2571;DHT22;1295;51.130;6.732;2023-12-07T07:30:31;3.40;99.90
2571;DHT22;1295;51.130;6.732;2023-12-07T07:32:56;3.40;99.90
2571;DHT22;1295;51.130;6.732;2023-12-07T07:35:22;3.40;99.90
2571;DHT22;1295;51.130;6.732;2023-12-07T07:37:48;3.40;99.90
2571;DHT22;1295;51.130;6.732;2023-12-07T07:40:14;3.40;99.90
2571;DHT22;1295;51.130;6.732;2023-12-07T07:42:40;3.40;99.90
2571;DHT22;1295;51.130;6.732;2023-12-07T07:45:07;3.40;99.90
2571;DHT22;1295;51.130;6.732;2023-12-07T07:47:33;3.40;99.90
2571;DHT22;1295;51.130;6.732;2023-12-07T07:49:58;3.40;99.90
2571;DHT22;1295;51.130;6.732;2023-12-07T07:52:24;3.30;99.90
2571;DHT22;1295;51.130;6.732;2023-12-07T07:54:50;3.20;99.90
2571;DHT22;1295;51.130;6.732;2023-12-07T07:57:15;3.30;99.90
2571;DHT22;1295;51.130;6.732;2023-12-07T07:59:41;3.20;99.90
2571;DHT22;1295;51.130;6.732;2023-12-07T08:02:07;3.30;99.90
2571;DHT22;1295;51.130;6.732;2023-12-07T08:04:32;3.00;99.90
2571;DHT22;1295;51.130;6.732;2023-12-07T08:06:58;3.20;99.90
2571;DHT22;1295;51.130;6.732;2023-12-07T08:09:23;3.20;99.90
2571;DHT22;1295;51.130;6.732;2023-12-07T08:11:49;2.80;99.90
2571;DHT22;1295;51.130;6.732;2023-12-07T08:14:15;3.00;99.90
2571;DHT22;1295;51.130;6.732;2023-12-07T08:16:44;3.20;99.90
2571;DHT22;1295;51.130;6.732;2023-12-07T08:19:08;3.30;99.90
2571;DHT22;1295;51.130;6.732;2023-12-07T08:21:33;3.20;99.90
2571;DHT22;1295;51.130;6.732;2023-12-07T08:23:59;3.10;99.90
2571;DHT22;1295;51.130;6.732;2023-12-07T08:26:25;3.00;99.90
2571;DHT22;1295;51.130;6.732;2023-12-07T08:28:51;3.30;99.90
2571;DHT22;1295;51.130;6.732;2023-12-07T08:31:17;3.20;99.90
2571;DHT22;1295;51.130;6.732;2023-12-07T08:33:42;3.30;99.90
2571;DHT22;1295;51.130;6.732;2023-12-07T08:36:09;3.30;99.90
2571;DHT22;1295;51.130;6.732;2023-12-07T08:38:35;3.30;99.90
2571;DHT22;1295;51.130;6.732;2023-12-07T08:41:01;3.30;99.90
2571;DHT22;1295;51.130;6.732;2023-12-07T08:43:26;3.30;99.90
2571;DHT22;1295;51.130;6.732;2023-12-07T08:45:52;3.30;99.90
2571;DHT22;1295;51.130;6.732;2023-12-07T08:48:18;3.30;99.90
2571;DHT22;1295;51.130;6.732;2023-12-07T08:50:43;3.30;99.90
2571;DHT22;1295;51.130;6.732;2023-12-07T08:53:09;3.30;99.90
2571;DHT22;1295;51.130;6.732;2023-12-07T08:55:35;3.40;99.90
2571;DHT22;1295;51.130;6.732;2023-12-07T08:58:01;3.40;99.90
2571;DHT22;1295;51.130;6.732;2023-12-07T09:00:26;3.30;99.90
2571;DHT22;1295;51.130;6.732;2023-12-07T09:02:52;3.40;99.90
2571;DHT22;1295;51.130;6.732;2023-12-07T09:05:18;3.20;99.90
2571;DHT22;1295;51.130;6.732;2023-12-07T09:07:43;3.20;99.90
2571;DHT22;1295;51.130;6.732;2023-12-07T09:10:09;3.30;99.90
2571;DHT22;1295;51.130;6.732;2023-12-07T09:12:35;3.20;99.90
2571;DHT22;1295;51.130;6.732;2023-12-07T09:15:02;3.30;99.90
2571;DHT22;1295;51.130;6.732;2023-12-07T09:17:27;3.30;99.90
2571;DHT22;1295;51.130;6.732;2023-12-07T09:19:53;3.30;99.90
2571;DHT22;1295;51.130;6.732;2023-12-07T09:22:19;3.30;99.90
2571;DHT22;1295;51.130;6.732;2023-12-07T09:24:45;3.20;99.90
2571;DHT22;1295;51.130;6.732;2023-12-07T09:27:10;3.30;99.90
2571;DHT22;1295;51.130;6.732;2023-12-07T09:29:36;3.30;99.90
2571;DHT22;1295;51.130;6.732;2023-12-07T09:32:02;3.20;99.90
2571;DHT22;1295;51.130;6.732;2023-12-07T09:34:27;3.20;99.90
2571;DHT22;1295;51.130;6.732;2023-12-07T09:37:05;3.30;99.90
2571;DHT22;1295;51.130;6.732;2023-12-07T09:39:28;3.20;99.90
2571;DHT22;1295;51.130;6.732;2023-12-07T09:41:53;3.40;99.90
2571;DHT22;1295;51.130;6.732;2023-12-07T09:44:19;3.50;99.90
2571;DHT22;1295;51.130;6.732;2023-12-07T09:46:45;3.80;99.90
2571;DHT22;1295;51.130;6.732;2023-12-07T09:49:11;4.10;99.90
2571;DHT22;1295;51.130;6.732;2023-12-07T09:51:37;4.10;99.90
2571;DHT22;1295;51.130;6.732;2023-12-07T09:54:03;4.30;99.90
2571;DHT22;1295;51.130;6.732;2023-12-07T09:56:29;4.50;99.90
2571;DHT22;1295;51.130;6.732;2023-12-07T09:58:55;4.60;99.90
2571;DHT22;1295;51.130;6.732;2023-12-07T10:01:20;4.60;99.90
2571;DHT22;1295;51.130;6.732;2023-12-07T10:03:46;4.60;99.90
2571;DHT22;1295;51.130;6.732;2023-12-07T10:06:12;4.50;99.90
2571;DHT22;1295;51.130;6.732;2023-12-07T10:08:37;4.50;99.90
2571;DHT22;1295;51.130;6.732;2023-12-07T10:11:06;4.60;99.90
2571;DHT22;1295;51.130;6.732;2023-12-07T10:13:32;4.80;99.90
2571;DHT22;1295;51.130;6.732;2023-12-07T10:16:05;5.00;99.90
2571;DHT22;1295;51.130;6.732;2023-12-07T10:18:31;4.90;99.90
2571;DHT22;1295;51.130;6.732;2023-12-07T10:20:58;4.70;99.90
2571;DHT22;1295;51.130;6.732;2023-12-07T10:23:24;4.70;99.90
2571;DHT22;1295;51.130;6.732;2023-12-07T10:25:49;4.70;99.90
2571;DHT22;1295;51.130;6.732;2023-12-07T10:28:15;4.60;99.90
2571;DHT22;1295;51.130;6.732;2023-12-07T10:30:40;4.50;99.90
2571;DHT22;1295;51.130;6.732;2023-12-07T10:33:06;4.50;99.90
2571;DHT22;1295;51.130;6.732;2023-12-07T10:35:33;4.50;99.90
2571;DHT22;1295;51.130;6.732;2023-12-07T10:37:58;4.80;99.90
2571;DHT22;1295;51.130;6.732;2023-12-07T10:40:24;4.50;99.90
2571;DHT22;1295;51.130;6.732;2023-12-07T10:42:49;4.70;99.90
2571;DHT22;1295;51.130;6.732;2023-12-07T10:45:15;4.60;99.90
2571;DHT22;1295;51.130;6.732;2023-12-07T10:47:43;4.60;99.90
2571;DHT22;1295;51.130;6.732;2023-12-07T10:50:08;4.60;99.90
2571;DHT22;1295;51.130;6.732;2023-12-07T10:52:35;4.80;99.90
2571;DHT22;1295;51.130;6.732;2023-12-07T10:55:03;4.80;99.90
2571;DHT22;1295;51.130;6.732;2023-12-07T10:57:29;4.90;99.90
2571;DHT22;1295;51.130;6.732;2023-12-07T10:59:54;5.20;99.90
2571;DHT22;1295;51.130;6.732;2023-12-07T11:02:20;5.20;99.90
2571;DHT22;1295;51.130;6.732;2023-12-07T11:04:46;4.80;99.90
2571;DHT22;1295;51.130;6.732;2023-12-07T11:07:14;4.80;99.90
2571;DHT22;1295;51.130;6.732;2023-12-07T11:09:39;4.80;99.90
2571;DHT22;1295;51.130;6.732;2023-12-07T11:12:27;5.10;99.90
2571;DHT22;1295;51.130;6.732;2023-12-07T11:14:46;5.00;99.90
2571;DHT22;1295;51.130;6.732;2023-12-07T11:17:12;5.00;99.90
2571;DHT22;1295;51.130;6.732;2023-12-07T11:19:46;5.30;99.90
2571;DHT22;1295;51.130;6.732;2023-12-07T11:22:12;5.50;99.90
2571;DHT22;1295;51.130;6.732;2023-12-07T11:24:37;5.60;99.90
2571;DHT22;1295;51.130;6.732;2023-12-07T11:27:04;5.80;99.90
2571;DHT22;1295;51.130;6.732;2023-12-07T11:29:30;5.80;99.90
2571;DHT22;1295;51.130;6.732;2023-12-07T11:31:55;5.90;99.90
2571;DHT22;1295;51.130;6.732;2023-12-07T11:36:58;5.80;99.90
2571;DHT22;1295;51.130;6.732;2023-12-07T11:39:24;5.80;99.90
2571;DHT22;1295;51.130;6.732;2023-12-07T11:41:51;6.00;99.90
2571;DHT22;1295;51.130;6.732;2023-12-07T11:44:17;5.90;99.90
2571;DHT22;1295;51.130;6.732;2023-12-07T11:46:48;5.80;99.90
2571;DHT22;1295;51.130;6.732;2023-12-07T11:49:14;5.80;99.90
2571;DHT22;1295;51.130;6.732;2023-12-07T11:51:39;6.00;99.90
2571;DHT22;1295;51.130;6.732;2023-12-07T11:54:05;5.90;99.90
2571;DHT22;1295;51.130;6.732;2023-12-07T11:56:31;6.00;99.90
2571;DHT22;1295;51.130;6.732;2023-12-07T11:58:56;5.90;99.90
2571;DHT22;1295;51.130;6.732;2023-12-07T12:01:25;5.80;99.90
2571;DHT22;1295;51.130;6.732;2023-12-07T12:03:58;6.10;99.90
2571;DHT22;1295;51.130;6.732;2023-12-07T12:06:24;6.00;99.90
2571;DHT22;1295;51.130;6.732;2023-12-07T12:08:50;6.00;99.90
2571;DHT22;1295;51.130;6.732;2023-12-07T12:11:15;5.90;99.90
2571;DHT22;1295;51.130;6.732;2023-12-07T12:13:41;5.80;99.90
2571;DHT22;1295;51.130;6.732;2023-12-07T12:16:07;5.90;99.90
2571;DHT22;1295;51.130;6.732;2023-12-07T12:18:33;5.90;99.90
2571;DHT22;1295;51.130;6.732;2023-12-07T12:20:59;6.00;99.90
2571;DHT22;1295;51.130;6.732;2023-12-07T12:23:25;6.00;99.90
2571;DHT22;1295;51.130;6.732;2023-12-07T12:25:50;5.80;99.90
2571;DHT22;1295;51.130;6.732;2023-12-07T12:28:16;5.80;99.90
2571;DHT22;1295;51.130;6.732;2023-12-07T12:30:42;5.80;99.90
2571;DHT22;1295;51.130;6.732;2023-12-07T12:33:07;6.00;99.90
2571;DHT22;1295;51.130;6.732;2023-12-07T12:35:33;6.00;99.90
2571;DHT22;1295;51.130;6.732;2023-12-07T12:37:59;6.00;99.90
2571;DHT22;1295;51.130;6.732;2023-12-07T12:40:26;6.00;99.90
2571;DHT22;1295;51.130;6.732;2023-12-07T12:42:51;6.20;99.90
2571;DHT22;1295;51.130;6.732;2023-12-07T12:45:16;6.40;99.90
2571;DHT22;1295;51.130;6.732;2023-12-07T12:47:42;6.20;99.90
2571;DHT22;1295;51.130;6.732;2023-12-07T12:50:08;6.30;99.90
2571;DHT22;1295;51.130;6.732;2023-12-07T12:52:34;6.10;99.90
2571;DHT22;1295;51.130;6.732;2023-12-07T12:54:59;6.10;99.90
2571;DHT22;1295;51.130;6.732;2023-12-07T12:57:25;6.00;99.90
2571;DHT22;1295;51.130;6.732;2023-12-07T12:59:51;6.00;99.90
2571;DHT22;1295;51.130;6.732;2023-12-07T13:02:17;6.00;99.90
2571;DHT22;1295;51.130;6.732;2023-12-07T13:04:43;5.90;99.90
2571;DHT22;1295;51.130;6.732;2023-12-07T13:07:09;5.70;99.90
2571;DHT22;1295;51.130;6.732;2023-12-07T13:09:34;5.60;99.90
2571;DHT22;1295;51.130;6.732;2023-12-07T13:11:59;5.60;99.90
2571;DHT22;1295;51.130;6.732;2023-12-07T13:14:25;5.50;99.90
2571;DHT22;1295;51.130;6.732;2023-12-07T13:16:51;5.50;99.90
2571;DHT22;1295;51.130;6.732;2023-12-07T13:19:16;5.50;99.90
2571;DHT22;1295;51.130;6.732;2023-12-07T13:21:42;5.50;99.90
2571;DHT22;1295;51.130;6.732;2023-12-07T13:24:08;5.60;99.90
2571;DHT22;1295;51.130;6.732;2023-12-07T13:26:33;5.60;99.90
2571;DHT22;1295;51.130;6.732;2023-12-07T13:28:59;5.60;99.90
2571;DHT22;1295;51.130;6.732;2023-12-07T13:31:25;5.50;99.90
2571;DHT22;1295;51.130;6.732;2023-12-07T13:33:51;5.50;99.90
2571;DHT22;1295;51.130;6.732;2023-12-07T13:36:16;5.60;99.90
2571;DHT22;1295;51.130;6.732;2023-12-07T13:38:43;5.40;99.90
2571;DHT22;1295;51.130;6.732;2023-12-07T13:41:08;5.40;99.90
2571;DHT22;1295;51.130;6.732;2023-12-07T13:43:34;5.40;99.90
2571;DHT22;1295;51.130;6.732;2023-12-07T13:46:00;5.40;99.90
2571;DHT22;1295;51.130;6.732;2023-12-07T13:48:26;5.40;99.90
2571;DHT22;1295;51.130;6.732;2023-12-07T13:50:52;5.50;99.90
2571;DHT22;1295;51.130;6.732;2023-12-07T13:53:17;5.50;99.90
2571;DHT22;1295;51.130;6.732;2023-12-07T13:55:44;5.50;99.90
2571;DHT22;1295;51.130;6.732;2023-12-07T13:58:09;5.50;99.90
2571;DHT22;1295;51.130;6.732;2023-12-07T14:00:36;5.40;99.90
2571;DHT22;1295;51.130;6.732;2023-12-07T14:03:01;5.40;99.90
2571;DHT22;1295;51.130;6.732;2023-12-07T14:05:26;5.50;99.90
2571;DHT22;1295;51.130;6.732;2023-12-07T14:07:52;5.60;99.90
2571;DHT22;1295;51.130;6.732;2023-12-07T14:10:17;5.50;99.90
2571;DHT22;1295;51.130;6.732;2023-12-07T14:12:43;5.40;99.90
2571;DHT22;1295;51.130;6.732;2023-12-07T14:15:09;5.50;99.90
2571;DHT22;1295;51.130;6.732;2023-12-07T14:17:35;5.50;99.90
2571;DHT22;1295;51.130;6.732;2023-12-07T14:20:05;5.50;99.90
2571;DHT22;1295;51.130;6.732;2023-12-07T14:22:31;5.50;99.90
2571;DHT22;1295;51.130;6.732;2023-12-07T14:24:56;5.50;99.90
2571;DHT22;1295;51.130;6.732;2023-12-07T14:27:22;5.50;99.90
2571;DHT22;1295;51.130;6.732;2023-12-07T14:29:48;5.40;99.90
2571;DHT22;1295;51.130;6.732;2023-12-07T14:32:13;5.50;99.90
2571;DHT22;1295;51.130;6.732;2023-12-07T14:34:39;5.20;99.90
2571;DHT22;1295;51.130;6.732;2023-12-07T14:37:05;5.20;99.90
2571;DHT22;1295;51.130;6.732;2023-12-07T14:39:30;5.10;99.90
2571;DHT22;1295;51.130;6.732;2023-12-07T14:41:56;5.20;99.90
2571;DHT22;1295;51.130;6.732;2023-12-07T14:44:22;5.20;99.90
2571;DHT22;1295;51.130;6.732;2023-12-07T14:46:48;5.20;99.90
2571;DHT22;1295;51.130;6.732;2023-12-07T14:49:15;5.20;99.90
2571;DHT22;1295;51.130;6.732;2023-12-07T14:51:40;5.20;99.90
2571;DHT22;1295;51.130;6.732;2023-12-07T14:54:06;5.20;99.90
2571;DHT22;1295;51.130;6.732;2023-12-07T14:56:31;5.20;99.90
2571;DHT22;1295;51.130;6.732;2023-12-07T14:58:57;5.30;99.90
2571;DHT22;1295;51.130;6.732;2023-12-07T15:01:23;5.40;99.90
2571;DHT22;1295;51.130;6.732;2023-12-07T15:03:48;5.10;99.90
2571;DHT22;1295;51.130;6.732;2023-12-07T15:06:14;5.20;99.90
2571;DHT22;1295;51.130;6.732;2023-12-07T15:08:39;5.30;99.90
2571;DHT22;1295;51.130;6.732;2023-12-07T15:11:05;5.30;99.90
2571;DHT22;1295;51.130;6.732;2023-12-07T15:13:32;5.20;99.90
2571;DHT22;1295;51.130;6.732;2023-12-07T15:15:58;5.30;99.90
2571;DHT22;1295;51.130;6.732;2023-12-07T15:18:23;5.30;99.90
2571;DHT22;1295;51.130;6.732;2023-12-07T15:20:49;5.30;99.90
2571;DHT22;1295;51.130;6.732;2023-12-07T15:23:15;5.30;99.90
2571;DHT22;1295;51.130;6.732;2023-12-07T15:25:40;5.20;99.90
2571;DHT22;1295;51.130;6.732;2023-12-07T15:28:06;5.20;99.90
2571;DHT22;1295;51.130;6.732;2023-12-07T15:30:32;4.80;99.90
2571;DHT22;1295;51.130;6.732;2023-12-07T15:32:58;4.80;99.90
2571;DHT22;1295;51.130;6.732;2023-12-07T15:35:24;5.20;99.90
2571;DHT22;1295;51.130;6.732;2023-12-07T15:37:50;5.20;99.90
2571;DHT22;1295;51.130;6.732;2023-12-07T15:40:16;5.20;99.90
2571;DHT22;1295;51.130;6.732;2023-12-07T15:42:42;5.20;99.90
2571;DHT22;1295;51.130;6.732;2023-12-07T15:45:08;5.10;99.90
2571;DHT22;1295;51.130;6.732;2023-12-07T15:47:33;5.20;99.90
2571;DHT22;1295;51.130;6.732;2023-12-07T15:49:59;5.20;99.90
2571;DHT22;1295;51.130;6.732;2023-12-07T15:52:25;5.30;99.90
2571;DHT22;1295;51.130;6.732;2023-12-07T15:54:50;5.20;99.90
2571;DHT22;1295;51.130;6.732;2023-12-07T15:57:16;5.30;99.90
2571;DHT22;1295;51.130;6.732;2023-12-07T15:59:42;5.20;99.90
2571;DHT22;1295;51.130;6.732;2023-12-07T16:02:08;5.10;99.90
2571;DHT22;1295;51.130;6.732;2023-12-07T16:04:34;5.00;99.90
2571;DHT22;1295;51.130;6.732;2023-12-07T16:06:59;5.20;99.90
2571;DHT22;1295;51.130;6.732;2023-12-07T16:09:25;5.20;99.90
2571;DHT22;1295;51.130;6.732;2023-12-07T16:11:51;5.00;99.90